Delta Virtual Airport Information Service

Nassau Lynden Pindling International Airport

ICAO: MYNN Country: Bahamas
Latitude: 25.0389 Longitude: -77.4662
Latest Arrival : RPA4348 (1A) (KMIA-MYNN) Latest Departure : DAL1279 (3A) (MYNN-KDTW)


WX CaptureLIVE
Data provided by noaa.gov | Fetched at 23:59:39

METAR : MYNN 250400Z 12013KT 9999 FEW015CB BKN100 25/23 A2997 CB N

TAF :


Runway Data for MYNN
Data provided by openaviationdata.com

Runway ID Mag Var Hdg Length Elevation Surface ILS Freq ILS Id ILS Slope
9 -6 95° 8318 ft 16 ft Asphalt -- -- --
14 -6 140° 11031 ft 16 ft Asphalt 110.1 IZQA 3
27 -6 275° 8318 ft 16 ft Asphalt -- -- --
32 -6 320° 11031 ft 16 ft Asphalt -- -- --

Nassau Lynden Pindling International Airport, Bahamas
Use only for reference purposes



Not for navigational purposes.